createdAt,value
2022-12-20T00:01:32.358Z,2.60
2022-12-20T00:03:59.891Z,2.60
2022-12-20T00:06:29.392Z,2.60
2022-12-20T00:08:56.932Z,2.60
2022-12-20T00:11:29.897Z,2.60
2022-12-20T00:13:57.350Z,2.60
2022-12-20T00:16:25.288Z,2.70
2022-12-20T00:18:56.560Z,2.60
2022-12-20T00:21:23.674Z,2.60
2022-12-20T00:23:51.379Z,2.60
2022-12-20T00:26:19.134Z,2.60
2022-12-20T00:28:45.772Z,2.60
2022-12-20T00:31:13.841Z,2.60
2022-12-20T00:33:45.090Z,2.60
2022-12-20T00:36:12.165Z,2.60
2022-12-20T00:38:41.139Z,2.60
2022-12-20T00:41:13.242Z,2.60
2022-12-20T00:43:39.882Z,2.70
2022-12-20T00:46:07.828Z,2.70
2022-12-20T00:48:34.541Z,2.60
2022-12-20T00:51:02.003Z,2.70
2022-12-20T00:53:28.942Z,2.60
2022-12-20T00:55:55.694Z,2.70
2022-12-20T00:58:22.477Z,2.70
2022-12-20T01:00:54.042Z,2.70
2022-12-20T01:03:25.272Z,2.70
2022-12-20T01:05:56.270Z,2.70
2022-12-20T01:08:24.036Z,2.70
2022-12-20T01:11:02.833Z,2.70
2022-12-20T01:13:29.990Z,2.70
2022-12-20T01:15:56.596Z,2.70
2022-12-20T01:18:23.190Z,2.70
2022-12-20T01:20:49.941Z,2.70
2022-12-20T01:23:19.050Z,2.60
2022-12-20T01:25:45.653Z,2.70
2022-12-20T01:28:12.216Z,2.60
2022-12-20T01:30:41.992Z,2.60
2022-12-20T01:33:08.610Z,2.60
2022-12-20T01:35:35.154Z,2.60
2022-12-20T01:38:01.920Z,2.70
2022-12-20T01:40:28.684Z,2.70
2022-12-20T01:42:55.236Z,2.70
2022-12-20T01:45:25.547Z,2.70
2022-12-20T01:47:54.466Z,2.70
2022-12-20T01:50:21.525Z,2.70
2022-12-20T01:52:51.681Z,2.70
2022-12-20T01:55:20.200Z,2.70
2022-12-20T01:57:55.855Z,2.70
2022-12-20T02:00:22.745Z,2.70
2022-12-20T02:02:49.913Z,2.70
2022-12-20T02:05:17.654Z,2.70
2022-12-20T02:07:46.223Z,2.70
2022-12-20T02:10:12.989Z,2.70
2022-12-20T02:12:43.820Z,2.70
2022-12-20T02:15:29.273Z,2.70
2022-12-20T02:18:04.426Z,2.70
2022-12-20T02:20:30.933Z,2.70
2022-12-20T02:23:03.765Z,2.70
2022-12-20T02:25:30.264Z,2.70
2022-12-20T02:28:23.870Z,2.60
2022-12-20T02:30:54.818Z,2.60
2022-12-20T02:33:22.663Z,2.60
2022-12-20T02:35:49.179Z,2.70
2022-12-20T02:38:27.386Z,2.70
2022-12-20T02:40:56.104Z,2.70
2022-12-20T02:43:42.947Z,2.60
2022-12-20T02:46:10.891Z,2.60
2022-12-20T02:48:40.664Z,2.60
2022-12-20T02:51:10.865Z,2.60
2022-12-20T02:53:37.991Z,2.70
2022-12-20T02:56:12.723Z,2.70
2022-12-20T02:58:48.576Z,2.70
2022-12-20T03:01:20.646Z,2.60
2022-12-20T03:03:47.582Z,2.70
2022-12-20T03:06:14.349Z,2.70
2022-12-20T03:08:43.033Z,2.60
2022-12-20T03:11:09.568Z,2.70
2022-12-20T03:13:38.400Z,2.60
2022-12-20T03:16:05.125Z,2.60
2022-12-20T03:18:34.217Z,2.70
2022-12-20T03:21:00.784Z,2.70
2022-12-20T03:23:27.367Z,2.60
2022-12-20T03:25:56.251Z,2.60
2022-12-20T03:28:22.797Z,2.60
2022-12-20T03:30:50.061Z,2.60
2022-12-20T03:33:18.916Z,2.60
2022-12-20T03:35:47.911Z,2.70
2022-12-20T03:38:14.482Z,2.60
2022-12-20T03:40:43.162Z,2.60
2022-12-20T03:43:09.689Z,2.70
2022-12-20T03:45:36.243Z,2.70
2022-12-20T03:48:02.840Z,2.70
2022-12-20T03:50:29.435Z,2.70
2022-12-20T03:52:55.992Z,2.70
2022-12-20T03:55:22.556Z,2.70
2022-12-20T03:57:49.129Z,2.70
2022-12-20T04:00:16.381Z,2.70
2022-12-20T04:02:43.286Z,2.70
2022-12-20T04:05:10.043Z,2.70
2022-12-20T04:07:39.061Z,2.70
2022-12-20T04:10:06.129Z,2.70
2022-12-20T04:12:32.714Z,2.70
2022-12-20T04:15:01.947Z,2.70
2022-12-20T04:17:28.527Z,2.70
2022-12-20T04:19:55.101Z,2.70
2022-12-20T04:22:21.731Z,2.70
2022-12-20T04:24:49.012Z,2.70
2022-12-20T04:27:15.533Z,2.70
2022-12-20T04:29:42.068Z,2.70
2022-12-20T04:32:08.627Z,2.70
2022-12-20T04:34:35.197Z,2.60
2022-12-20T04:37:01.747Z,2.60
2022-12-20T04:39:28.394Z,2.60
2022-12-20T04:41:57.346Z,2.60
2022-12-20T04:44:23.905Z,2.60
2022-12-20T04:46:52.418Z,2.70
2022-12-20T04:49:19.091Z,2.60
2022-12-20T04:51:45.660Z,2.60
2022-12-20T04:54:12.220Z,2.60
2022-12-20T04:56:39.164Z,2.70
2022-12-20T04:59:05.804Z,2.70
2022-12-20T05:01:34.560Z,2.70
2022-12-20T05:04:01.363Z,2.70
2022-12-20T05:06:28.050Z,2.70
2022-12-20T05:08:55.169Z,2.70
2022-12-20T05:11:23.911Z,2.70
2022-12-20T05:13:50.423Z,2.70
2022-12-20T05:16:19.140Z,2.70
2022-12-20T05:18:49.274Z,2.70
2022-12-20T05:21:34.738Z,2.80
2022-12-20T05:24:19.875Z,2.80
2022-12-20T05:26:46.463Z,2.80
2022-12-20T05:29:13.019Z,2.80
2022-12-20T05:31:41.832Z,2.80
2022-12-20T05:34:08.452Z,2.80
2022-12-20T05:36:35.108Z,2.80
2022-12-20T05:39:04.307Z,2.80
2022-12-20T05:41:31.682Z,2.80
2022-12-20T05:43:58.307Z,2.80
2022-12-20T05:46:25.010Z,2.80
2022-12-20T05:48:52.473Z,2.80
2022-12-20T05:51:19.065Z,2.80
2022-12-20T05:53:47.855Z,2.80
2022-12-20T05:56:14.495Z,2.80
2022-12-20T05:58:41.114Z,2.80
2022-12-20T06:01:08.803Z,2.80
2022-12-20T06:03:35.557Z,2.90
2022-12-20T06:06:02.317Z,2.90
2022-12-20T06:08:28.934Z,2.90
2022-12-20T06:10:58.059Z,2.80
2022-12-20T06:13:25.868Z,2.80
2022-12-20T06:15:52.482Z,2.80
2022-12-20T06:18:21.663Z,2.80
2022-12-20T06:20:53.624Z,2.80
2022-12-20T06:23:20.283Z,2.80
2022-12-20T06:25:49.638Z,2.80
2022-12-20T06:28:21.996Z,2.80
2022-12-20T06:30:55.535Z,2.70
2022-12-20T06:33:22.163Z,2.70
2022-12-20T06:35:52.191Z,2.70
2022-12-20T06:38:20.883Z,2.70
2022-12-20T06:40:47.520Z,2.70
2022-12-20T06:43:16.653Z,2.70
2022-12-20T06:45:43.363Z,2.70
2022-12-20T06:50:56.313Z,2.70
2022-12-20T06:53:25.154Z,2.80
2022-12-20T06:55:51.778Z,2.80
2022-12-20T06:58:19.032Z,2.80
2022-12-20T07:00:45.989Z,2.80
2022-12-20T07:03:13.105Z,2.80
2022-12-20T07:05:40.066Z,2.80
2022-12-20T07:08:07.100Z,2.80
2022-12-20T07:10:34.431Z,2.80
2022-12-20T07:13:01.030Z,2.80
2022-12-20T07:15:30.006Z,2.90
2022-12-20T07:17:56.580Z,2.80
2022-12-20T07:20:23.175Z,2.80
2022-12-20T07:22:49.774Z,2.80
2022-12-20T07:25:16.334Z,2.80
2022-12-20T07:27:43.725Z,2.80
2022-12-20T07:30:10.534Z,2.80
2022-12-20T07:32:39.371Z,2.80
2022-12-20T07:35:06.174Z,2.80
2022-12-20T07:37:32.765Z,2.90
2022-12-20T07:39:59.360Z,2.90
2022-12-20T07:42:35.733Z,2.90
2022-12-20T07:45:04.805Z,3.00
2022-12-20T07:47:31.632Z,3.00
2022-12-20T07:49:58.213Z,3.00
2022-12-20T07:52:26.647Z,3.00
2022-12-20T07:55:03.790Z,3.00
2022-12-20T07:57:34.181Z,3.00
2022-12-20T08:00:02.146Z,3.00
2022-12-20T08:02:34.204Z,3.00
2022-12-20T08:05:02.008Z,3.00
2022-12-20T08:07:32.307Z,3.10
2022-12-20T08:09:59.063Z,3.00
2022-12-20T08:12:28.029Z,3.00
2022-12-20T08:14:57.360Z,3.00
2022-12-20T08:17:26.630Z,3.00
2022-12-20T08:19:53.235Z,3.00
2022-12-20T08:22:19.823Z,3.00
2022-12-20T08:24:46.521Z,3.00
2022-12-20T08:27:15.681Z,3.00
2022-12-20T08:29:42.212Z,3.00
2022-12-20T08:32:08.810Z,3.00
2022-12-20T08:34:35.560Z,3.10
2022-12-20T08:37:07.786Z,3.10
2022-12-20T08:39:39.098Z,3.10
2022-12-20T08:42:05.804Z,3.10
2022-12-20T08:44:34.823Z,3.10
2022-12-20T08:47:01.403Z,3.10
2022-12-20T08:49:28.064Z,3.10
2022-12-20T08:51:54.649Z,3.10
2022-12-20T08:54:21.314Z,3.20
2022-12-20T08:56:48.128Z,3.20
2022-12-20T08:59:14.700Z,3.20
2022-12-20T09:01:43.889Z,3.20
2022-12-20T09:04:11.457Z,3.30
2022-12-20T09:06:40.645Z,3.30
2022-12-20T09:09:07.611Z,3.30
2022-12-20T09:11:36.316Z,3.30
2022-12-20T09:14:02.946Z,3.30
2022-12-20T09:16:33.039Z,3.30
2022-12-20T09:19:05.221Z,3.30
2022-12-20T09:21:33.393Z,3.30
2022-12-20T09:24:00.128Z,3.30
2022-12-20T09:26:28.865Z,3.40
2022-12-20T09:28:55.465Z,3.40
2022-12-20T09:31:23.406Z,3.40
2022-12-20T09:33:50.357Z,3.40
2022-12-20T09:36:18.185Z,3.40
2022-12-20T09:38:45.322Z,3.50
2022-12-20T09:41:30.987Z,3.50
2022-12-20T09:44:00.727Z,3.50
2022-12-20T09:46:27.664Z,3.50
2022-12-20T09:51:27.359Z,3.60
2022-12-20T09:54:03.780Z,3.60
2022-12-20T09:56:34.851Z,3.60
2022-12-20T09:59:01.414Z,3.60
2022-12-20T10:01:38.231Z,3.60
2022-12-20T10:04:25.980Z,3.70
2022-12-20T10:07:11.165Z,3.60
2022-12-20T10:09:46.753Z,3.70
2022-12-20T10:12:18.777Z,3.70
2022-12-20T10:14:47.828Z,3.70
2022-12-20T10:17:18.831Z,3.70
2022-12-20T10:19:54.452Z,3.70
2022-12-20T10:22:25.013Z,3.70
2022-12-20T10:24:56.153Z,3.70
2022-12-20T10:27:22.940Z,3.70
2022-12-20T10:29:50.421Z,3.80
2022-12-20T10:32:19.140Z,3.80
2022-12-20T10:34:54.930Z,3.80
2022-12-20T10:37:21.577Z,3.80
2022-12-20T10:39:48.911Z,3.80
2022-12-20T10:42:34.615Z,3.80
2022-12-20T10:45:03.883Z,3.80
2022-12-20T10:47:33.216Z,3.80
2022-12-20T10:50:22.732Z,3.90
2022-12-20T10:53:19.197Z,3.90
2022-12-20T10:55:46.075Z,3.90
2022-12-20T10:58:35.183Z,3.90
2022-12-20T11:01:04.771Z,4.00
2022-12-20T11:03:33.844Z,4.00
2022-12-20T11:06:03.296Z,4.00
2022-12-20T11:11:14.986Z,4.00
2022-12-20T11:13:42.068Z,4.00
2022-12-20T11:16:26.190Z,4.00
2022-12-20T11:19:07.242Z,4.10
2022-12-20T11:21:35.953Z,4.10
2022-12-20T11:24:11.808Z,4.10
2022-12-20T11:26:50.444Z,4.10
2022-12-20T11:29:17.484Z,4.20
2022-12-20T11:32:02.637Z,4.20
2022-12-20T11:34:47.399Z,4.20
2022-12-20T11:37:19.407Z,4.20
2022-12-20T11:39:45.996Z,4.30
2022-12-20T11:42:29.285Z,4.30
2022-12-20T11:45:09.280Z,4.30
2022-12-20T11:47:46.767Z,4.30
2022-12-20T11:50:16.335Z,4.40
2022-12-20T11:52:48.590Z,4.40
2022-12-20T11:55:21.141Z,4.40
2022-12-20T11:58:18.192Z,4.40
2022-12-20T12:00:50.773Z,4.40
2022-12-20T12:03:24.001Z,4.40
2022-12-20T12:05:59.367Z,4.50
2022-12-20T12:08:30.070Z,4.50
2022-12-20T12:13:25.749Z,4.50
2022-12-20T12:15:59.724Z,4.50
2022-12-20T12:18:32.577Z,4.60
2022-12-20T12:21:08.314Z,4.50
2022-12-20T12:23:35.834Z,4.60
2022-12-20T12:26:09.845Z,4.60
2022-12-20T12:28:36.771Z,4.60
2022-12-20T12:31:11.442Z,4.60
2022-12-20T12:33:42.592Z,4.60
2022-12-20T12:36:15.143Z,4.70
2022-12-20T12:38:54.377Z,4.70
2022-12-20T12:41:24.904Z,4.70
2022-12-20T12:44:08.991Z,4.70
2022-12-20T12:46:36.840Z,4.80
2022-12-20T12:49:11.721Z,4.80
2022-12-20T12:51:41.387Z,4.90
2022-12-20T12:54:26.258Z,4.90
2022-12-20T12:56:57.277Z,4.90
2022-12-20T12:59:32.789Z,4.90
2022-12-20T13:02:04.872Z,5.00
2022-12-20T13:04:51.559Z,5.00
2022-12-20T13:07:28.226Z,4.90
2022-12-20T13:09:55.164Z,4.90
2022-12-20T13:12:37.190Z,5.00
2022-12-20T13:15:03.900Z,5.00
2022-12-20T13:17:30.508Z,5.00
2022-12-20T13:19:57.613Z,5.00
2022-12-20T13:22:25.096Z,5.10
2022-12-20T13:25:03.468Z,5.10
2022-12-20T13:27:33.001Z,5.00
2022-12-20T13:30:05.477Z,5.10
2022-12-20T13:32:44.273Z,5.10
2022-12-20T13:35:39.521Z,5.10
2022-12-20T13:38:26.013Z,5.10
2022-12-20T13:41:00.103Z,5.10
2022-12-20T13:43:35.498Z,5.20
2022-12-20T13:46:14.510Z,5.10
2022-12-20T13:48:41.095Z,5.20
2022-12-20T13:51:10.613Z,5.20
2022-12-20T13:53:37.747Z,5.20
2022-12-20T13:56:23.021Z,5.20
2022-12-20T13:58:49.587Z,5.20
2022-12-20T14:01:16.289Z,5.20
2022-12-20T14:03:46.120Z,5.20
2022-12-20T14:06:19.196Z,5.20
2022-12-20T14:08:50.526Z,5.20
2022-12-20T14:11:18.643Z,5.20
2022-12-20T14:13:55.746Z,5.20
2022-12-20T14:16:23.462Z,5.20
2022-12-20T14:19:00.032Z,5.20
2022-12-20T14:21:27.474Z,5.20
2022-12-20T14:23:55.483Z,5.20
2022-12-20T14:26:26.178Z,5.20
2022-12-20T14:28:54.570Z,5.20
2022-12-20T14:31:23.979Z,5.20
2022-12-20T14:33:53.295Z,5.20
2022-12-20T14:36:22.468Z,5.30
2022-12-20T14:38:50.308Z,5.30
2022-12-20T14:41:32.175Z,5.30
2022-12-20T14:44:02.605Z,5.30
2022-12-20T14:46:31.894Z,5.30
2022-12-20T14:49:06.953Z,5.30
2022-12-20T14:51:33.622Z,5.30
2022-12-20T14:54:00.169Z,5.30
2022-12-20T14:56:31.876Z,5.30
2022-12-20T14:59:07.384Z,5.30
2022-12-20T15:01:38.561Z,5.30
2022-12-20T15:04:21.842Z,5.30
2022-12-20T15:06:49.389Z,5.30
2022-12-20T15:09:16.202Z,5.30
2022-12-20T15:11:44.742Z,5.20
2022-12-20T15:14:22.740Z,5.20
2022-12-20T15:16:49.469Z,5.20
2022-12-20T15:19:16.130Z,5.20
2022-12-20T15:21:45.045Z,5.20
2022-12-20T15:24:12.967Z,5.20
2022-12-20T15:26:39.762Z,5.20
2022-12-20T15:29:06.320Z,5.20
2022-12-20T15:31:34.798Z,5.20
2022-12-20T15:34:04.313Z,5.20
2022-12-20T15:36:31.280Z,5.20
2022-12-20T15:39:14.724Z,5.20
2022-12-20T15:41:43.637Z,5.20
2022-12-20T15:44:15.412Z,5.20
2022-12-20T15:46:42.842Z,5.20
2022-12-20T15:49:16.228Z,5.20
2022-12-20T15:51:44.527Z,5.30
2022-12-20T15:54:34.698Z,5.30
2022-12-20T15:57:07.362Z,5.20
2022-12-20T15:59:59.724Z,5.20
2022-12-20T16:02:25.094Z,5.20
2022-12-20T16:04:55.129Z,5.20
2022-12-20T16:07:21.883Z,5.20
2022-12-20T16:09:48.430Z,5.20
2022-12-20T16:12:16.809Z,5.20
2022-12-20T16:14:43.407Z,5.20
2022-12-20T16:17:14.066Z,5.20
2022-12-20T16:19:41.357Z,5.20
2022-12-20T16:22:26.443Z,5.20
2022-12-20T16:24:53.267Z,5.20
2022-12-20T16:27:20.482Z,5.20
2022-12-20T16:29:47.215Z,5.20
2022-12-20T16:32:17.964Z,5.20
2022-12-20T16:34:44.791Z,5.20
2022-12-20T16:37:13.965Z,5.20
2022-12-20T16:39:43.007Z,5.10
2022-12-20T16:42:27.377Z,5.10
2022-12-20T16:44:56.382Z,5.10
2022-12-20T16:47:23.142Z,5.10
2022-12-20T16:49:53.230Z,5.00
2022-12-20T16:52:20.546Z,5.00
2022-12-20T16:54:47.398Z,5.10
2022-12-20T16:57:13.986Z,5.00
2022-12-20T16:59:40.566Z,5.00
2022-12-20T17:02:25.091Z,5.00
2022-12-20T17:04:51.777Z,5.00
2022-12-20T17:07:18.349Z,5.00
2022-12-20T17:09:47.113Z,5.00
2022-12-20T17:12:23.189Z,4.90
2022-12-20T17:14:49.847Z,5.00
2022-12-20T17:17:17.377Z,5.00
2022-12-20T17:19:44.224Z,5.00
2022-12-20T17:22:24.087Z,5.00
2022-12-20T17:24:53.094Z,5.00
2022-12-20T17:27:19.716Z,5.00
2022-12-20T17:29:46.266Z,5.00
2022-12-20T17:32:18.267Z,5.10
2022-12-20T17:34:44.815Z,5.10
2022-12-20T17:37:11.378Z,5.10
2022-12-20T17:39:38.011Z,5.10
2022-12-20T17:42:04.680Z,5.10
2022-12-20T17:44:31.594Z,5.10
2022-12-20T17:46:58.167Z,5.10
2022-12-20T17:49:24.733Z,5.10
2022-12-20T17:51:51.683Z,5.10
2022-12-20T17:54:20.220Z,5.10
2022-12-20T17:56:46.903Z,5.10
2022-12-20T17:59:13.775Z,5.10
2022-12-20T18:01:40.798Z,5.10
2022-12-20T18:04:09.141Z,5.10
2022-12-20T18:06:42.724Z,5.10
2022-12-20T18:09:18.835Z,5.00
2022-12-20T18:11:45.523Z,5.00
2022-12-20T18:14:12.471Z,5.00
2022-12-20T18:16:39.577Z,5.10
2022-12-20T18:19:07.153Z,5.00
2022-12-20T18:21:33.984Z,5.10
2022-12-20T18:24:00.661Z,5.00
2022-12-20T18:26:30.912Z,5.00
2022-12-20T18:28:59.691Z,5.00
2022-12-20T18:31:27.762Z,5.10
2022-12-20T18:33:58.021Z,5.10
2022-12-20T18:36:27.052Z,5.00
2022-12-20T18:38:55.819Z,5.10
2022-12-20T18:41:26.671Z,5.00
2022-12-20T18:43:53.783Z,5.00
2022-12-20T18:46:24.323Z,5.00
2022-12-20T18:48:52.790Z,5.00
2022-12-20T18:51:20.977Z,5.00
2022-12-20T18:53:51.185Z,5.00
2022-12-20T18:56:19.759Z,5.00
2022-12-20T18:58:47.378Z,5.00
2022-12-20T19:01:21.256Z,5.00
2022-12-20T19:03:49.848Z,4.90
2022-12-20T19:06:16.497Z,4.90
2022-12-20T19:08:43.034Z,4.90
2022-12-20T19:11:11.258Z,4.90
2022-12-20T19:13:45.540Z,4.90
2022-12-20T19:16:20.329Z,4.90
2022-12-20T19:18:47.374Z,4.80
2022-12-20T19:21:17.539Z,4.80
2022-12-20T19:23:47.329Z,4.80
2022-12-20T19:26:14.141Z,4.80
2022-12-20T19:28:41.295Z,4.90
2022-12-20T19:31:17.340Z,4.90
2022-12-20T19:33:47.791Z,4.90
2022-12-20T19:36:15.818Z,4.90
2022-12-20T19:38:45.499Z,4.90
2022-12-20T19:41:14.493Z,4.90
2022-12-20T19:43:41.885Z,4.90
2022-12-20T19:46:09.590Z,4.90
2022-12-20T19:48:38.777Z,4.90
2022-12-20T19:51:07.007Z,5.00
2022-12-20T19:53:35.751Z,4.90
2022-12-20T19:56:02.447Z,4.90
2022-12-20T19:58:31.143Z,4.90
2022-12-20T20:00:57.689Z,4.90
2022-12-20T20:03:26.738Z,5.00
2022-12-20T20:05:54.789Z,5.00
2022-12-20T20:08:21.390Z,4.90
2022-12-20T20:10:55.183Z,5.00
2022-12-20T20:13:22.142Z,5.00
2022-12-20T20:15:52.340Z,5.00
2022-12-20T20:18:21.832Z,5.00
2022-12-20T20:20:51.348Z,5.00
2022-12-20T20:23:17.877Z,5.00
2022-12-20T20:25:45.477Z,5.00
2022-12-20T20:28:14.527Z,5.00
2022-12-20T20:30:42.041Z,5.00
2022-12-20T20:33:09.172Z,5.00
2022-12-20T20:35:35.916Z,5.00
2022-12-20T20:38:05.090Z,5.00
2022-12-20T20:40:32.515Z,5.00
2022-12-20T20:42:59.369Z,5.00
2022-12-20T20:45:26.092Z,5.00
2022-12-20T20:47:54.965Z,5.00
2022-12-20T20:50:21.906Z,5.00
2022-12-20T20:52:50.874Z,5.00
2022-12-20T20:55:17.984Z,5.00
2022-12-20T20:57:44.801Z,5.00
2022-12-20T21:00:12.127Z,5.00
2022-12-20T21:02:38.955Z,5.00
2022-12-20T21:05:58.611Z,5.00
2022-12-20T21:07:52.823Z,4.90
2022-12-20T21:10:19.804Z,4.90
2022-12-20T21:12:46.518Z,4.90
2022-12-20T21:15:23.332Z,5.00
2022-12-20T21:17:50.635Z,5.00
2022-12-20T21:20:25.471Z,5.00
2022-12-20T21:22:54.179Z,5.00
2022-12-20T21:25:23.630Z,5.00
2022-12-20T21:27:52.807Z,5.00
2022-12-20T21:30:19.457Z,5.00
2022-12-20T21:32:46.002Z,5.00
2022-12-20T21:35:13.885Z,5.00
2022-12-20T21:37:42.875Z,4.90
2022-12-20T21:40:09.774Z,5.00
2022-12-20T21:42:36.412Z,4.90
2022-12-20T21:45:03.040Z,5.00
2022-12-20T21:47:29.913Z,4.90
2022-12-20T21:49:58.679Z,4.90
2022-12-20T21:52:28.539Z,4.90
2022-12-20T21:54:55.128Z,5.00
2022-12-20T21:57:21.699Z,4.90
2022-12-20T21:59:50.438Z,4.90
2022-12-20T22:04:44.650Z,4.90
2022-12-20T22:07:13.393Z,4.90
2022-12-20T22:09:42.182Z,4.90
2022-12-20T22:12:09.199Z,4.90
2022-12-20T22:14:35.831Z,4.90
2022-12-20T22:17:02.378Z,4.90
2022-12-20T22:19:29.028Z,4.90
2022-12-20T22:21:58.199Z,4.90
2022-12-20T22:24:27.734Z,4.90
2022-12-20T22:26:54.663Z,4.90
2022-12-20T22:29:21.290Z,4.90
2022-12-20T22:31:47.946Z,4.90
2022-12-20T22:34:15.277Z,4.90
2022-12-20T22:36:41.839Z,5.00
2022-12-20T22:39:09.320Z,4.90
2022-12-20T22:41:36.531Z,4.90
2022-12-20T22:44:03.558Z,4.90
2022-12-20T22:46:30.377Z,5.00
2022-12-20T22:48:57.824Z,5.00
2022-12-20T22:51:27.052Z,5.00
2022-12-20T22:53:55.740Z,5.00
2022-12-20T22:56:27.096Z,5.00
2022-12-20T22:58:58.345Z,5.00
2022-12-20T23:01:25.186Z,5.00
2022-12-20T23:03:52.032Z,5.00
2022-12-20T23:06:20.152Z,5.00
2022-12-20T23:08:49.247Z,5.00
2022-12-20T23:11:36.814Z,5.00
2022-12-20T23:14:22.776Z,5.00
2022-12-20T23:16:49.620Z,5.00
2022-12-20T23:19:16.251Z,5.10
2022-12-20T23:22:01.432Z,5.10
2022-12-20T23:24:30.336Z,5.10
2022-12-20T23:26:57.433Z,5.10
2022-12-20T23:29:24.092Z,5.10
2022-12-20T23:31:50.734Z,5.10
2022-12-20T23:34:19.804Z,5.10
2022-12-20T23:36:46.589Z,5.10
2022-12-20T23:39:13.151Z,5.10
2022-12-20T23:41:42.179Z,5.10
2022-12-20T23:44:11.166Z,5.10
2022-12-20T23:46:38.217Z,5.10
2022-12-20T23:49:04.822Z,5.10
2022-12-20T23:51:31.441Z,5.10
2022-12-20T23:54:00.439Z,5.10
2022-12-20T23:56:27.146Z,5.10
2022-12-20T23:58:56.501Z,5.10
